Time;durP1;ratioP1;P1;durP2;ratioP2;P2;SDS_P1;SDS_P2;PMS_P1;PMS_P2;Temp;Humidity;BMP_temperature;BMP_pressure;BME280_temperature;BME280_humidity;BME280_pressure;Samples;Min_cycle;Max_cycle;Signal;HPM_P1;HPM_P2
2022/04/04 00:00:10;;;;;;;7.93;2.75;;;4.20;99.90;;;;;;5086374;28;20417;-61
2022/04/04 00:02:39;;;;;;;5.82;3.13;;;4.20;99.90;;;;;;5085486;28;20048;-61
2022/04/04 00:05:05;;;;;;;5.07;2.75;;;4.30;99.90;;;;;;5079766;28;20429;-61
2022/04/04 00:07:31;;;;;;;3.72;2.42;;;4.30;99.90;;;;;;5080250;28;20085;-61
2022/04/04 00:09:57;;;;;;;5.80;2.75;;;4.30;99.90;;;;;;5081225;28;20115;-61
2022/04/04 00:12:23;;;;;;;5.45;2.85;;;4.30;99.90;;;;;;5083856;28;20462;-61
2022/04/04 00:14:50;;;;;;;5.25;2.88;;;4.30;99.90;;;;;;5080922;28;20037;-61
2022/04/04 00:17:16;;;;;;;6.55;3.85;;;4.30;99.90;;;;;;5086728;28;20080;-61
2022/04/04 00:19:41;;;;;;;5.05;3.08;;;4.30;99.90;;;;;;5088762;28;20441;-61
2022/04/04 00:22:07;;;;;;;6.88;2.60;;;4.30;99.90;;;;;;5087349;28;20043;-61
2022/04/04 00:24:33;;;;;;;6.28;3.42;;;4.40;99.90;;;;;;5085817;28;20040;-61
2022/04/04 00:27:00;;;;;;;5.85;3.53;;;4.40;99.90;;;;;;5086985;28;20032;-61
2022/04/04 00:29:26;;;;;;;6.63;3.85;;;4.40;99.90;;;;;;5088558;28;20140;-61
2022/04/04 00:31:53;;;;;;;6.93;3.00;;;4.40;99.90;;;;;;5087195;28;20085;-61
2022/04/04 00:34:19;;;;;;;8.52;4.30;;;4.50;99.90;;;;;;5086532;28;20154;-61
2022/04/04 00:36:45;;;;;;;7.53;4.35;;;4.50;99.90;;;;;;5086790;28;20054;-61
2022/04/04 00:39:15;;;;;;;7.30;4.38;;;4.50;99.90;;;;;;5089441;28;20044;-61
2022/04/04 00:41:43;;;;;;;6.75;4.75;;;4.50;99.90;;;;;;5086843;28;20040;-61
2022/04/04 00:44:09;;;;;;;9.90;4.75;;;4.60;99.90;;;;;;5092562;28;20046;-61
2022/04/04 00:46:39;;;;;;;8.35;4.72;;;4.60;99.90;;;;;;5089807;28;20040;-61
2022/04/04 00:49:05;;;;;;;8.27;5.57;;;4.60;99.90;;;;;;5086631;28;20208;-61
2022/04/04 00:51:30;;;;;;;7.15;4.95;;;4.70;99.90;;;;;;5087123;28;20032;-61
2022/04/04 00:53:56;;;;;;;9.68;6.93;;;4.70;99.90;;;;;;5085769;28;20091;-61
2022/04/04 00:56:23;;;;;;;12.32;7.60;;;;;;;;;;5085654;28;20041;-61
2022/04/04 00:58:49;;;;;;;11.43;6.70;;;;;;;;;;5092772;28;20032;-61
2022/04/04 01:01:15;;;;;;;12.98;7.72;;;;;;;;;;5090093;28;20130;-61
2022/04/04 01:03:41;;;;;;;11.10;6.95;;;;;;;;;;5085663;28;20070;-60
2022/04/04 01:06:07;;;;;;;13.70;8.00;;;;;;;;;;5089877;28;20035;-61
2022/04/04 01:08:33;;;;;;;11.82;7.85;;;;;;;;;;5091722;28;20423;-61
2022/04/04 01:11:00;;;;;;;14.20;8.63;;;;;;;;;;5091030;28;20412;-61
2022/04/04 01:13:26;;;;;;;11.40;7.15;;;;;;;;;;5092094;28;20036;-61
2022/04/04 01:15:52;;;;;;;12.73;8.63;;;;;;;;;;5091920;28;20036;-61
2022/04/04 01:18:18;;;;;;;10.02;7.53;;;;;;;;;;5090294;28;20036;-60
2022/04/04 01:20:44;;;;;;;13.35;8.00;;;;;;;;;;5085747;28;20132;-60
2022/04/04 01:23:13;;;;;;;9.95;7.28;;;;;;;;;;5087293;28;20032;-61
2022/04/04 01:25:39;;;;;;;16.38;7.60;;;;;;;;;;5082812;28;20125;-60
2022/04/04 01:28:06;;;;;;;18.52;8.43;;;;;;;;;;5085213;28;20060;-60
2022/04/04 01:30:32;;;;;;;11.35;8.00;;;;;;;;;;5086813;28;20214;-60
2022/04/04 01:32:58;;;;;;;20.17;10.00;;;;;;;;;;5086736;28;20411;-61
2022/04/04 01:35:25;;;;;;;12.52;8.55;;;;;;;;;;5087056;28;20036;-60
2022/04/04 01:37:51;;;;;;;14.13;9.38;;;;;;;;;;5089416;28;20041;-61
2022/04/04 01:40:17;;;;;;;14.93;9.30;;;;;;;;;;5088893;28;20036;-61
2022/04/04 01:42:47;;;;;;;13.90;8.98;;;;;;;;;;5088796;28;20036;-61
2022/04/04 01:45:14;;;;;;;13.45;9.00;;;;;;;;;;5083982;28;20036;-61
2022/04/04 01:47:41;;;;;;;18.65;9.27;;;;;;;;;;5084632;28;20045;-61
2022/04/04 01:50:07;;;;;;;16.65;9.18;;;;;;;;;;5083447;28;20031;-61
2022/04/04 01:52:33;;;;;;;14.32;8.80;;;;;;;;;;5088190;28;20047;-61
2022/04/04 01:54:59;;;;;;;14.25;9.48;;;;;;;;;;5089853;28;20090;-61
2022/04/04 01:57:25;;;;;;;17.23;10.05;;;;;;;;;;5090793;28;20039;-61
2022/04/04 01:59:51;;;;;;;18.35;9.65;;;;;;;;;;5084459;28;20040;-61
2022/04/04 02:02:18;;;;;;;15.80;10.07;;;;;;;;;;5083045;28;20036;-61
2022/04/04 02:04:44;;;;;;;15.07;10.32;;;;;;;;;;5084046;28;20064;-61
2022/04/04 02:07:10;;;;;;;17.20;10.40;;;;;;;;;;5089695;28;20135;-61
2022/04/04 02:09:36;;;;;;;18.08;9.82;;;;;;;;;;5081951;28;20153;-61
2022/04/04 02:12:04;;;;;;;13.80;9.23;;;;;;;;;;5085610;28;20075;-61
2022/04/04 02:14:31;;;;;;;14.88;8.80;;;;;;;;;;5078772;28;20048;-61
2022/04/04 02:16:57;;;;;;;14.23;9.18;;;;;;;;;;5086454;28;20048;-61
2022/04/04 02:19:23;;;;;;;13.85;8.75;;;;;;;;;;5087656;28;20133;-63
2022/04/04 02:21:49;;;;;;;15.70;10.48;;;;;;;;;;5085903;28;20514;-61
2022/04/04 02:24:15;;;;;;;15.93;10.18;;;;;;;;;;5064370;28;20049;-61
2022/04/04 02:26:41;;;;;;;14.85;9.50;;;;;;;;;;5085481;28;20042;-61
2022/04/04 02:29:07;;;;;;;15.85;9.95;;;;;;;;;;5090054;28;20454;-61
2022/04/04 02:31:33;;;;;;;17.38;10.40;;;;;;;;;;5090797;28;20439;-61
2022/04/04 02:34:00;;;;;;;14.13;10.38;;;;;;;;;;5081930;28;20047;-61
2022/04/04 02:36:26;;;;;;;16.08;10.90;;;;;;;;;;5087891;28;20578;-60
2022/04/04 02:38:52;;;;;;;16.45;11.60;;;;;;;;;;5077382;28;20094;-61
2022/04/04 02:41:18;;;;;;;18.73;10.80;;;;;;;;;;5079720;28;20074;-61
2022/04/04 02:43:44;;;;;;;16.90;11.20;;;;;;;;;;5089553;28;20566;-61
2022/04/04 02:46:12;;;;;;;15.43;11.35;;;;;;;;;;5088481;28;20050;-61
2022/04/04 02:48:38;;;;;;;16.70;11.40;;;;;;;;;;5088015;28;20044;-61
2022/04/04 02:51:07;;;;;;;14.10;11.20;;;;;;;;;;5078062;28;20036;-61
2022/04/04 02:53:33;;;;;;;16.23;11.82;;;;;;;;;;5080353;28;20050;-61
2022/04/04 02:58:43;;;;;;;17.60;11.52;;;;;;;;;;5085268;28;20046;-61
2022/04/04 03:01:10;;;;;;;12.93;10.50;;;;;;;;;;5084557;28;20048;-60
2022/04/04 03:03:36;;;;;;;18.33;11.43;;;;;;;;;;5089945;28;20519;-62
2022/04/04 03:06:02;;;;;;;17.77;11.77;;;;;;;;;;5078625;28;20069;-61
2022/04/04 03:08:28;;;;;;;18.58;10.90;;;;;;;;;;5086998;28;20532;-62
2022/04/04 03:10:54;;;;;;;15.52;11.57;;;;;;;;;;5088262;28;20044;-62
2022/04/04 03:13:21;;;;;;;16.88;11.55;;;;;;;;;;5088323;28;20075;-61
2022/04/04 03:15:47;;;;;;;18.00;11.38;;;;;;;;;;5079787;28;20052;-61
2022/04/04 03:18:13;;;;;;;21.30;11.27;;;;;;;;;;5083575;28;20036;-61
2022/04/04 03:20:39;;;;;;;21.80;12.57;;;;;;;;;;5087471;28;20123;-61
2022/04/04 03:23:05;;;;;;;17.73;11.15;;;;;;;;;;5084623;28;20039;-61
2022/04/04 03:25:31;;;;;;;19.00;11.80;;;;;;;;;;5082668;28;20532;-62
2022/04/04 03:27:58;;;;;;;20.13;11.60;;;;;;;;;;5089780;28;20052;-61
2022/04/04 03:30:28;;;;;;;16.05;10.63;;;;;;;;;;5082210;28;20044;-61
2022/04/04 03:32:55;;;;;;;20.13;10.82;;;;;;;;;;5089723;28;20045;-61
2022/04/04 03:35:21;;;;;;;18.90;11.35;;;;;;;;;;5085920;28;20550;-61
2022/04/04 03:37:49;;;;;;;15.55;10.98;;;;;;;;;;5089980;28;20032;-62
2022/04/04 03:40:16;;;;;;;15.82;10.32;;;;;;;;;;5087740;28;20047;-61
2022/04/04 03:42:43;;;;;;;15.57;9.68;;;;;;;;;;5078590;28;20096;-62
2022/04/04 03:45:11;;;;;;;14.82;7.93;;;;;;;;;;5091770;28;20044;-61
2022/04/04 03:47:37;;;;;;;14.88;8.13;;;;;;;;;;5086345;28;20123;-61
2022/04/04 03:50:05;;;;;;;16.27;8.88;;;;;;;;;;5082986;28;20505;-61
2022/04/04 03:52:31;;;;;;;15.45;7.47;;;;;;;;;;5086174;28;20077;-61
2022/04/04 03:54:57;;;;;;;13.57;6.90;;;;;;;;;;5084903;28;20048;-61
2022/04/04 03:57:23;;;;;;;13.45;7.70;;;;;;;;;;5081650;28;20509;-61
2022/04/04 03:59:49;;;;;;;13.88;8.15;;;;;;;;;;5081244;28;20119;-61
2022/04/04 04:02:16;;;;;;;16.90;8.98;;;;;;;;;;5086018;28;20504;-61
2022/04/04 04:04:44;;;;;;;20.83;8.88;;;;;;;;;;5084698;28;20040;-61
2022/04/04 04:07:15;;;;;;;16.50;9.18;;;;;;;;;;5077389;28;20235;-61
2022/04/04 04:09:42;;;;;;;19.58;12.05;;;;;;;;;;5079769;28;20385;-61
2022/04/04 04:12:10;;;;;;;18.88;10.20;;;;;;;;;;5081894;28;20052;-61
2022/04/04 04:14:36;;;;;;;16.77;10.18;;;;;;;;;;5085731;28;20048;-60
2022/04/04 04:17:06;;;;;;;14.70;9.60;;;;;;;;;;5080593;28;20041;-61
2022/04/04 04:22:19;;;;;;;19.58;10.52;;;;;;;;;;5081389;28;20051;-61
2022/04/04 04:24:45;;;;;;;17.15;10.45;;;;;;;;;;5085664;28;20114;-61
2022/04/04 04:27:12;;;;;;;21.40;10.23;;;;;;;;;;5086661;28;20036;-61
2022/04/04 04:29:39;;;;;;;21.98;10.25;;;;;;;;;;5082527;28;20132;-61
2022/04/04 04:32:07;;;;;;;15.45;9.65;;;;;;;;;;5073821;28;20051;-61
2022/04/04 04:34:34;;;;;;;19.45;10.57;;;;;;;;;;5083825;28;20111;-61
2022/04/04 04:37:00;;;;;;;17.88;9.85;;;;;;;;;;5086629;28;20047;-60
2022/04/04 04:39:26;;;;;;;18.33;9.52;;;;;;;;;;5080267;28;20124;-61
2022/04/04 04:41:53;;;;;;;16.95;9.73;;;;;;;;;;5083805;28;20144;-61
2022/04/04 04:44:19;;;;;;;26.58;10.60;;;;;;;;;;5085961;28;20058;-61
2022/04/04 04:46:45;;;;;;;13.93;8.95;;;;;;;;;;5083748;28;20040;-60
2022/04/04 04:49:11;;;;;;;11.38;9.35;;;;;;;;;;5083741;28;20111;-60
2022/04/04 04:51:38;;;;;;;18.35;10.80;;;;;;;;;;5088130;28;20489;-60
2022/04/04 04:54:04;;;;;;;17.45;10.00;;;;;;;;;;5073877;28;20044;-60
2022/04/04 04:56:31;;;;;;;16.58;9.48;;;;;;;;;;5086921;28;20050;-60
2022/04/04 04:58:57;;;;;;;18.05;9.32;;;;;;;;;;5085548;28;20489;-60
2022/04/04 05:01:23;;;;;;;19.63;10.13;;;;;;;;;;5098999;28;20134;-60
2022/04/04 05:03:50;;;;;;;15.85;10.10;;;;;;;;;;5086433;28;20040;-61
2022/04/04 05:06:16;;;;;;;16.02;8.55;;;;;;;;;;5088251;28;20032;-61
2022/04/04 05:08:43;;;;;;;11.23;8.15;;;;;;;;;;5082827;28;20044;-61
2022/04/04 05:11:09;;;;;;;13.77;7.45;;;;;;;;;;5086375;28;20069;-60
2022/04/04 05:13:36;;;;;;;17.73;8.63;;;;;;;;;;5084353;28;20055;-60
2022/04/04 05:16:04;;;;;;;14.15;7.18;;;;;;;;;;5065093;28;20048;-61
2022/04/04 05:18:31;;;;;;;10.25;5.88;;;;;;;;;;5083130;28;20040;-60
2022/04/04 05:20:58;;;;;;;11.35;5.47;;;;;;;;;;5082167;28;20294;-61
2022/04/04 05:23:24;;;;;;;9.18;4.22;;;;;;;;;;5088820;28;20486;-60
2022/04/04 05:25:50;;;;;;;7.18;4.38;;;;;;;;;;5088070;28;20375;-60
2022/04/04 05:28:16;;;;;;;9.50;4.13;;;;;;;;;;5091964;28;20056;-61
2022/04/04 05:30:42;;;;;;;9.63;4.15;;;;;;;;;;5089289;28;20039;-61
2022/04/04 05:33:09;;;;;;;7.53;4.53;;;;;;;;;;5090466;28;20058;-61
2022/04/04 05:35:35;;;;;;;8.95;4.18;;;;;;;;;;5081443;28;20127;-61
2022/04/04 05:38:02;;;;;;;7.97;3.40;;;;;;;;;;5082367;28;20158;-61
2022/04/04 05:40:28;;;;;;;13.18;3.58;;;;;;;;;;5077452;28;20095;-61
2022/04/04 05:42:55;;;;;;;6.15;2.65;;;;;;;;;;5084704;28;20047;-61
2022/04/04 05:45:21;;;;;;;4.05;2.63;;;;;;;;;;5087064;28;20138;-61
2022/04/04 05:47:47;;;;;;;4.25;2.50;;;;;;;;;;5082495;28;20502;-61
2022/04/04 05:50:14;;;;;;;4.43;2.60;;;;;;;;;;5081860;28;20036;-61
2022/04/04 05:52:42;;;;;;;3.55;2.00;;;;;;;;;;5088672;28;20092;-61
2022/04/04 05:55:08;;;;;;;5.50;2.50;;;;;;;;;;5084077;28;20135;-61
2022/04/04 05:57:38;;;;;;;5.20;2.47;;;;;;;;;;5091730;28;20043;-61
2022/04/04 06:00:13;;;;;;;9.07;3.38;;;;;;;;;;5080863;28;20048;-61
2022/04/04 06:02:40;;;;;;;5.72;2.78;;;;;;;;;;5085067;28;20339;-61
2022/04/04 06:05:07;;;;;;;5.30;2.80;;;;;;;;;;5075933;28;20047;-61
2022/04/04 06:07:34;;;;;;;7.90;3.42;;;;;;;;;;5085255;28;20363;-62
2022/04/04 06:10:00;;;;;;;6.15;3.05;;;;;;;;;;5088338;28;20580;-61
2022/04/04 06:12:26;;;;;;;7.63;3.47;;;;;;;;;;5084632;28;20048;-61
2022/04/04 06:14:52;;;;;;;5.65;3.45;;;;;;;;;;5078456;28;20063;-61
2022/04/04 06:17:19;;;;;;;7.13;3.63;;;;;;;;;;5088534;28;20451;-61
2022/04/04 06:19:46;;;;;;;8.27;3.88;;;;;;;;;;5087219;28;20055;-61
2022/04/04 06:22:12;;;;;;;15.52;4.70;;;;;;;;;;5088808;28;20044;-61
2022/04/04 06:24:38;;;;;;;6.88;4.05;;;;;;;;;;5066025;28;20032;-61
2022/04/04 06:27:05;;;;;;;6.90;4.28;;;;;;;;;;5085485;28;20033;-61
2022/04/04 06:29:31;;;;;;;8.63;4.53;;;;;;;;;;5089028;28;20056;-61
2022/04/04 06:31:58;;;;;;;10.63;4.78;;;;;;;;;;5085642;28;20063;-58
2022/04/04 06:34:25;;;;;;;9.45;4.75;;;;;;;;;;5082321;28;20044;-63
2022/04/04 06:36:51;;;;;;;17.80;5.90;;;;;;;;;;5090627;28;20461;-60
2022/04/04 06:39:18;;;;;;;13.70;6.05;;;;;;;;;;5085693;28;20409;-59
2022/04/04 06:41:45;;;;;;;8.18;5.35;;;;;;;;;;5074968;28;20478;-59
2022/04/04 06:44:11;;;;;;;11.55;5.38;;;;;;;;;;5088999;28;20177;-59
2022/04/04 06:46:38;;;;;;;14.60;6.03;;;;;;;;;;5080089;28;20036;-59
2022/04/04 06:49:05;;;;;;;16.77;6.38;;;;;;;;;;5088790;28;20131;-59
2022/04/04 06:51:32;;;;;;;14.38;7.53;;;;;;;;;;5085188;28;20048;-59
2022/04/04 06:53:59;;;;;;;16.15;7.47;;;;;;;;;;5088971;28;20032;-59
2022/04/04 06:56:25;;;;;;;12.25;7.90;;;;;;;;;;5079789;28;20040;-59
2022/04/04 06:58:52;;;;;;;14.02;8.77;;;;;;;;;;5080306;28;20114;-59
2022/04/04 07:01:19;;;;;;;14.45;8.35;;;;;;;;;;5080501;28;20493;-59
2022/04/04 07:03:45;;;;;;;18.15;9.50;;;;;;;;;;5083156;28;20465;-59
2022/04/04 07:06:12;;;;;;;16.73;9.15;;;;;;;;;;5080485;28;20075;-59
2022/04/04 07:08:38;;;;;;;16.75;7.97;;;;;;;;;;5089892;28;20105;-59
2022/04/04 07:11:08;;;;;;;14.93;10.63;;;;;;;;;;5088309;28;20087;-59
2022/04/04 07:13:34;;;;;;;14.30;9.13;;;;;;;;;;5088676;28;20048;-59
2022/04/04 07:16:00;;;;;;;17.75;9.98;;;;;;;;;;5081195;28;20502;-59
2022/04/04 07:18:26;;;;;;;13.68;9.02;;;;;;;;;;5083109;28;20051;-59
2022/04/04 07:20:52;;;;;;;13.18;8.95;;;;;;;;;;5087192;28;20043;-59
2022/04/04 07:23:18;;;;;;;14.52;8.90;;;;;;;;;;5088813;28;20044;-59
2022/04/04 07:25:44;;;;;;;13.90;8.88;;;;;;;;;;5086761;28;20040;-59
2022/04/04 07:28:11;;;;;;;12.40;8.38;;;;;;;;;;5089579;28;20055;-59
2022/04/04 07:30:37;;;;;;;12.73;8.68;;;;;;;;;;5089356;28;20092;-61
2022/04/04 07:33:04;;;;;;;14.13;7.57;;;;;;;;;;5088974;28;20576;-59
2022/04/04 07:35:31;;;;;;;14.95;9.15;;;;;;;;;;5085405;28;20040;-59
2022/04/04 07:37:57;;;;;;;12.98;7.53;;;;;;;;;;5084982;28;20043;-59
2022/04/04 07:40:23;;;;;;;16.42;8.43;;;;;;;;;;5082706;28;20052;-59
2022/04/04 07:42:50;;;;;;;10.38;7.20;;;;;;;;;;5080291;28;20047;-59
2022/04/04 07:45:17;;;;;;;12.35;7.15;;;;;;;;;;5085431;28;20041;-59
2022/04/04 07:47:44;;;;;;;13.00;7.15;;;;;;;;;;5082055;28;20040;-59
2022/04/04 07:50:11;;;;;;;11.82;7.53;;;;;;;;;;5083600;28;20036;-60
2022/04/04 07:52:38;;;;;;;12.20;6.60;;;;;;;;;;5086535;28;20043;-59
2022/04/04 07:55:05;;;;;;;12.05;6.95;;;;;;;;;;5087092;28;20040;-59
2022/04/04 07:57:31;;;;;;;15.55;8.48;;;;;;;;;;5087568;28;20046;-59
2022/04/04 07:59:57;;;;;;;11.43;7.30;;;;;;;;;;5086317;28;20040;-59
2022/04/04 08:02:23;;;;;;;13.13;7.90;;;;;;;;;;5088620;28;20040;-59
2022/04/04 08:04:50;;;;;;;12.90;7.28;;;;;;;;;;5088756;28;20051;-59
2022/04/04 08:07:19;;;;;;;18.95;7.70;;;;;;;;;;5085170;28;20464;-60
2022/04/04 08:09:46;;;;;;;13.60;6.88;;;;;;;;;;5087396;28;20408;-60
2022/04/04 08:12:12;;;;;;;12.55;6.65;;;;;;;;;;5085109;28;20297;-59
2022/04/04 08:14:39;;;;;;;9.63;5.50;;;;;;;;;;5079933;28;20076;-60
2022/04/04 08:17:05;;;;;;;13.65;6.03;;;;;;;;;;5088507;28;20056;-59
2022/04/04 08:19:32;;;;;;;9.95;6.22;;;;;;;;;;5088910;28;20075;-60
2022/04/04 08:21:58;;;;;;;13.38;6.90;;;;;;;;;;5088598;28;20044;-60
2022/04/04 08:24:25;;;;;;;8.23;6.32;;;;;;;;;;5085021;28;20074;-60
2022/04/04 08:26:51;;;;;;;11.30;6.00;;;;;;;;;;5085661;28;20127;-60
2022/04/04 08:29:17;;;;;;;11.57;6.30;;;;;;;;;;5078561;28;20133;-60
2022/04/04 08:31:43;;;;;;;10.02;5.47;;;;;;;;;;5088558;28;20130;-60
2022/04/04 08:34:10;;;;;;;10.35;6.15;;;;;;;;;;5083675;28;20055;-60
2022/04/04 08:36:36;;;;;;;8.25;4.82;;;;;;;;;;5088670;28;20047;-61
2022/04/04 08:39:03;;;;;;;9.35;5.22;;;;;;;;;;5083795;28;20040;-60
2022/04/04 08:41:30;;;;;;;8.82;4.82;;;;;;;;;;5088129;28;20044;-59
2022/04/04 08:43:58;;;;;;;9.40;5.30;;;;;;;;;;5088408;28;20544;-60
2022/04/04 08:46:24;;;;;;;9.30;4.45;;;;;;;;;;5084709;28;20032;-60
2022/04/04 08:48:52;;;;;;;9.18;4.80;;;;;;;;;;5081439;28;20043;-60
2022/04/04 08:51:18;;;;;;;8.82;4.30;;;;;;;;;;5083501;28;20032;-60
2022/04/04 08:53:44;;;;;;;10.40;3.92;;;;;;;;;;5088225;28;20097;-60
2022/04/04 08:56:11;;;;;;;8.82;4.60;;;;;;;;;;5076276;28;20410;-60
2022/04/04 08:58:38;;;;;;;6.88;4.63;;;;;;;;;;5088559;28;20052;-60
2022/04/04 09:01:04;;;;;;;6.65;4.22;;;;;;;;;;5086613;28;20036;-60
2022/04/04 09:03:31;;;;;;;9.05;4.07;;;;;;;;;;5092246;28;20048;-59
2022/04/04 09:05:58;;;;;;;10.20;4.25;;;;;;;;;;5087535;28;20097;-60
2022/04/04 09:08:25;;;;;;;8.27;4.47;;;;;;;;;;5090718;28;20044;-60
2022/04/04 09:10:56;;;;;;;6.28;4.05;;;;;;;;;;5091157;28;20143;-60
2022/04/04 09:13:23;;;;;;;6.30;3.80;;;;;;;;;;5087538;28;20036;-60
2022/04/04 09:15:57;;;;;;;8.18;4.40;;;;;;;;;;5087082;28;20040;-60
2022/04/04 09:18:41;;;;;;;10.18;3.55;;;;;;;;;;5101578;28;20036;-60
2022/04/04 09:21:09;;;;;;;7.75;4.45;;;;;;;;;;5091919;28;20044;-60
2022/04/04 09:23:51;;;;;;;14.73;5.38;;;;;;;;;;5091639;28;20440;-60
2022/04/04 09:26:27;;;;;;;7.10;3.78;;;;;;;;;;5078019;28;20392;-59
2022/04/04 09:28:54;;;;;;;4.95;3.25;;;;;;;;;;5091760;28;20141;-60
2022/04/04 09:31:20;;;;;;;6.68;3.38;;;;;;;;;;5091810;28;20285;-60
2022/04/04 09:33:47;;;;;;;5.93;4.10;;;;;;;;;;5092190;28;20093;-60
2022/04/04 09:36:13;;;;;;;12.30;4.40;;;;;;;;;;5091706;28;20460;-60
2022/04/04 09:38:43;;;;;;;8.85;4.18;;;;;;;;;;5091359;28;20048;-61
2022/04/04 09:41:15;;;;;;;7.55;3.97;;;;;;;;;;5088254;28;20124;-60
2022/04/04 09:43:54;;;;;;;7.03;3.38;;;;;;;;;;5100179;28;20037;-60
2022/04/04 09:46:21;;;;;;;8.32;3.55;;;;;;;;;;5091678;28;20093;-60
2022/04/04 09:49:06;;;;;;;9.80;4.57;;;;;;;;;;5088057;28;20050;-61
2022/04/04 09:52:01;;;;;;;5.53;3.45;;;;;;;;;;5089777;28;20055;-60
2022/04/04 09:54:29;;;;;;;10.15;4.00;;;;;;;;;;5085052;28;20051;-60
2022/04/04 09:57:11;;;;;;;13.07;3.55;;;;;;;;;;5091074;28;20054;-60
2022/04/04 09:59:37;;;;;;;5.82;3.08;;;;;;;;;;5084067;28;20056;-61
2022/04/04 10:02:05;;;;;;;6.18;3.15;;;;;;;;;;5086963;28;20177;-60
2022/04/04 10:04:32;;;;;;;8.57;2.80;;;;;;;;;;5083282;28;20044;-60
2022/04/04 10:06:58;;;;;;;5.72;3.03;;;;;;;;;;5084336;28;20059;-60
2022/04/04 10:09:25;;;;;;;5.97;2.88;;;;;;;;;;5083083;28;20131;-61
2022/04/04 10:11:52;;;;;;;9.57;3.20;;;;;;;;;;5090347;28;20069;-61
2022/04/04 10:14:18;;;;;;;7.13;3.22;;;;;;;;;;5086330;28;20039;-61
2022/04/04 10:16:45;;;;;;;6.55;2.25;;;;;;;;;;5081847;28;20183;-60
2022/04/04 10:19:12;;;;;;;5.45;2.42;;;;;;;;;;5088351;28;20086;-61
2022/04/04 10:21:38;;;;;;;4.72;2.50;;;;;;;;;;5088077;28;20048;-60
2022/04/04 10:24:06;;;;;;;3.97;2.05;;;;;;;;;;5083880;28;20040;-61
2022/04/04 10:26:33;;;;;;;4.88;2.17;;;;;;;;;;5090542;28;20036;-60
2022/04/04 10:29:14;;;;;;;4.72;2.35;;;;;;;;;;5087947;28;20561;-60
2022/04/04 10:31:44;;;;;;;4.85;2.05;;;;;;;;;;5084459;28;20119;-60
2022/04/04 10:34:12;;;;;;;8.15;2.60;;;;;;;;;;5088291;28;20055;-61
2022/04/04 10:36:38;;;;;;;5.55;2.50;;;;;;;;;;5076377;28;20048;-60
2022/04/04 10:39:04;;;;;;;5.90;2.53;;;;;;;;;;5089887;28;20043;-60
2022/04/04 10:41:32;;;;;;;4.38;2.10;;;;;;;;;;5084387;28;20497;-60
2022/04/04 10:43:59;;;;;;;6.53;2.22;;;;;;;;;;5090188;28;20089;-61
2022/04/04 10:46:26;;;;;;;3.15;2.00;;;;;;;;;;5084411;28;20036;-60
2022/04/04 10:48:53;;;;;;;6.63;2.05;;;;;;;;;;5090430;28;20040;-61
2022/04/04 10:51:19;;;;;;;3.80;2.22;;;;;;;;;;5087902;28;20032;-61
2022/04/04 10:53:48;;;;;;;4.25;2.25;;;;;;;;;;5089299;28;20490;-60
2022/04/04 10:56:18;;;;;;;5.47;2.15;;;;;;;;;;5071918;28;20040;-61
2022/04/04 10:58:45;;;;;;;5.38;2.10;;;;;;;;;;5090531;28;20536;-60
2022/04/04 11:01:16;;;;;;;2.35;1.58;;;;;;;;;;5086352;28;20056;-60
2022/04/04 11:04:03;;;;;;;2.53;1.55;;;;;;;;;;5089353;28;20089;-60
2022/04/04 11:09:32;;;;;;;5.57;1.40;;;;;;;;;;5088288;28;20513;-60
2022/04/04 11:12:08;;;;;;;3.47;1.70;;;;;;;;;;5083617;28;20532;-61
2022/04/04 11:14:39;;;;;;;3.75;1.75;;;;;;;;;;5085186;28;20409;-61
2022/04/04 11:17:11;;;;;;;4.65;1.70;;;;;;;;;;5083709;28;20082;-61
2022/04/04 11:19:46;;;;;;;3.58;1.48;;;;;;;;;;5089540;28;20055;-60
2022/04/04 11:22:23;;;;;;;2.88;1.60;;;;;;;;;;5089655;28;20146;-61
2022/04/04 11:24:51;;;;;;;3.53;1.85;;;;;;;;;;5081906;28;20120;-60
2022/04/04 11:27:18;;;;;;;3.00;1.83;;;;;;;;;;5089374;28;20072;-61
2022/04/04 11:29:44;;;;;;;4.13;2.05;;;;;;;;;;5081367;28;20044;-60
2022/04/04 11:32:19;;;;;;;5.85;1.70;;;;;;;;;;5087113;28;20044;-62
2022/04/04 11:34:45;;;;;;;6.93;2.10;;;;;;;;;;5085206;28;20050;-61
2022/04/04 11:37:17;;;;;;;3.33;2.15;;;;;;;;;;5086229;28;20055;-61
2022/04/04 11:39:45;;;;;;;3.77;1.70;;;;;;;;;;5088005;28;20048;-61
2022/04/04 11:42:11;;;;;;;3.08;2.15;;;;;;;;;;5082350;28;20043;-61
2022/04/04 11:44:45;;;;;;;4.78;2.20;;;;;;;;;;5088346;28;20062;-60
2022/04/04 11:47:11;;;;;;;5.18;2.40;;;;;;;;;;5086225;28;20051;-61
2022/04/04 11:49:38;;;;;;;7.43;3.00;;;;;;;;;;5089485;28;20092;-61
2022/04/04 11:52:06;;;;;;;3.78;2.92;;;;;;;;;;5089223;28;20051;-61
2022/04/04 11:54:39;;;;;;;7.25;3.42;;;;;;;;;;5087964;28;20528;-61
2022/04/04 11:57:06;;;;;;;5.78;3.22;;;;;;;;;;5083227;28;20616;-60
2022/04/04 11:59:36;;;;;;;6.00;3.25;;;;;;;;;;5081851;28;20085;-61
2022/04/04 12:02:07;;;;;;;6.82;4.13;;;;;;;;;;5087787;28;20060;-60
2022/04/04 12:04:34;;;;;;;13.15;4.93;;;;;;;;;;5086185;28;20047;-62
2022/04/04 12:07:01;;;;;;;9.00;3.75;;;;;;;;;;5088927;28;20390;-61
2022/04/04 12:09:35;;;;;;;5.38;3.88;;;;;;;;;;5087257;28;20036;-61
2022/04/04 12:12:05;;;;;;;8.85;3.92;;;;;;;;;;5083701;28;20050;-61
2022/04/04 12:14:37;;;;;;;6.93;3.85;;;;;;;;;;5088817;28;20050;-60
2022/04/04 12:17:03;;;;;;;9.27;4.55;;;;;;;;;;5080638;28;20047;-61
2022/04/04 12:19:30;;;;;;;6.65;3.90;;;;;;;;;;5097267;28;20062;-61
2022/04/04 12:21:57;;;;;;;12.45;5.20;;;;;;;;;;5079778;28;20052;-61
2022/04/04 12:27:15;;;;;;;8.55;4.35;;;;;;;;;;5078915;28;20040;-61
2022/04/04 12:29:41;;;;;;;;;;;;;;;;;;5085999;28;20059;-61
2022/04/04 12:32:19;;;;;;;11.02;4.15;;;;;;;;;;5096349;28;20483;-60
2022/04/04 12:35:01;;;;;;;7.82;4.32;;;;;;;;;;5085046;28;20531;-61
2022/04/04 12:37:41;;;;;;;5.93;4.05;;;;;;;;;;5090476;28;20067;-61
2022/04/04 12:40:17;;;;;;;5.72;4.07;;;;;;;;;;5088741;28;20035;-61
2022/04/04 12:42:43;;;;;;;10.05;4.55;;;;;;;;;;5089279;28;20674;-61
2022/04/04 12:45:12;;;;;;;9.45;4.32;;;;;;;;;;5067030;28;20047;-61
2022/04/04 12:47:55;;;;;;;7.28;4.43;;;;;;;;;;5084885;28;20032;-61
2022/04/04 12:50:21;;;;;;;8.63;5.05;;;;;;;;;;5083031;28;20032;-61
2022/04/04 12:52:58;;;;;;;10.27;5.38;;;;;;;;;;5089784;28;20040;-61
2022/04/04 12:55:24;;;;;;;7.80;4.50;;;;;;;;;;5088737;28;20097;-61
2022/04/04 12:57:50;;;;;;;9.65;4.75;;;;;;;;;;5088474;28;20068;-61
2022/04/04 13:00:35;;;;;;;9.50;5.20;;;;;;;;;;5085077;28;20441;-61
2022/04/04 13:03:19;;;;;;;9.00;4.47;;;;;;;;;;5089877;28;20123;-61
2022/04/04 13:05:49;;;;;;;10.68;5.57;;;;;;;;;;5086937;28;20107;-61
2022/04/04 13:08:20;;;;;;;12.13;5.63;;;;;;;;;;5084887;28;20036;-61
2022/04/04 13:11:02;;;;;;;10.63;5.35;;;;;;;;;;5086993;28;20551;-61
2022/04/04 13:13:29;;;;;;;13.27;5.75;;;;;;;;;;5084508;28;20043;-61
2022/04/04 13:15:55;;;;;;;10.40;5.03;;;;;;;;;;5084803;28;20036;-61
2022/04/04 13:18:21;;;;;;;10.93;5.15;;;;;;;;;;5087438;28;20046;-62
2022/04/04 13:20:47;;;;;;;12.80;5.93;;;;;;;;;;5088288;28;20117;-61
2022/04/04 13:23:13;;;;;;;9.73;5.65;;;;;;;;;;5067125;28;20198;-61
2022/04/04 13:25:40;;;;;;;7.07;4.78;;;;;;;;;;5095330;28;20106;-61
2022/04/04 13:28:11;;;;;;;12.77;5.18;;;;;;;;;;5084673;28;20060;-61
2022/04/04 13:30:39;;;;;;;16.23;5.63;;;;;;;;;;5087301;28;20040;-61
2022/04/04 13:33:06;;;;;;;20.63;6.53;;;;;;;;;;5088180;28;20047;-61
2022/04/04 13:35:33;;;;;;;13.35;7.22;;;;;;;;;;5083535;28;20044;-61
2022/04/04 13:37:59;;;;;;;16.83;6.20;;;;;;;;;;5086785;28;20522;-61
2022/04/04 13:40:25;;;;;;;15.95;7.50;;;;;;;;;;5088357;28;20036;-61
2022/04/04 13:42:52;;;;;;;15.80;5.45;;;;;;;;;;5084692;28;20050;-61
2022/04/04 13:45:18;;;;;;;13.98;6.43;;;;;;;;;;5089079;28;20043;-60
2022/04/04 13:47:44;;;;;;;20.20;7.05;;;;;;;;;;5086570;28;20080;-61
2022/04/04 13:50:11;;;;;;;11.57;5.97;;;;;;;;;;5092721;28;20094;-61
2022/04/04 13:52:40;;;;;;;16.10;6.55;;;;;;;;;;5093210;28;20447;-61
2022/04/04 13:55:08;;;;;;;11.75;5.40;;;;;;;;;;5086661;28;20080;-61
2022/04/04 13:57:35;;;;;;;16.70;6.78;;;;;;;;;;5087915;28;20048;-62
2022/04/04 14:00:01;;;;;;;18.65;7.05;;;;;;;;;;5087733;28;20063;-61
2022/04/04 14:02:27;;;;;;;17.25;5.97;;;;;;;;;;5092393;28;20571;-61
2022/04/04 14:04:53;;;;;;;17.15;6.20;;;;;;;;;;5088175;28;20068;-62
2022/04/04 14:07:20;;;;;;;12.57;5.88;;;;;;;;;;5093197;28;20040;-62
2022/04/04 14:09:46;;;;;;;11.20;5.25;;;;;;;;;;5086683;28;20044;-61
2022/04/04 14:12:12;;;;;;;17.35;6.60;;;;;;;;;;5086166;28;20047;-61
2022/04/04 14:14:39;;;;;;;16.10;6.97;;;;;;;;;;5092359;28;20086;-61
2022/04/04 14:17:06;;;;;;;16.50;6.07;;;;;;;;;;5086881;28;20508;-61
2022/04/04 14:19:33;;;;;;;16.95;6.55;;;;;;;;;;5087073;28;20075;-61
2022/04/04 14:21:59;;;;;;;19.25;7.60;;;;;;;;;;5092676;28;20051;-61
2022/04/04 14:24:25;;;;;;;26.35;6.97;;;;;;;;;;5088873;28;20048;-60
2022/04/04 14:26:52;;;;;;;19.95;6.75;;;;;;;;;;5090678;28;20032;-61
2022/04/04 14:29:18;;;;;;;20.02;7.18;;;;;;;;;;5091921;28;20139;-60
2022/04/04 14:31:44;;;;;;;17.20;7.18;;;;;;;;;;5092511;28;20048;-61
2022/04/04 14:34:11;;;;;;;20.85;8.43;;;;;;;;;;5090548;28;20036;-60
2022/04/04 14:36:38;;;;;;;19.65;6.97;;;;;;;;;;5090699;28;20081;-61
2022/04/04 14:39:07;;;;;;;15.45;6.88;;;;;;;;;;5090119;28;20043;-61